createdAt,value
2019-03-11T00:01:12.191Z,13.03
2019-03-11T00:03:17.356Z,12.87
2019-03-11T00:05:22.204Z,13.73
2019-03-11T00:07:27.026Z,13.43
2019-03-11T00:09:34.728Z,13.00
2019-03-11T00:11:39.268Z,12.33
2019-03-11T00:13:43.779Z,12.67
2019-03-11T00:15:48.859Z,12.67
2019-03-11T00:17:53.253Z,13.40
2019-03-11T00:19:58.125Z,13.57
2019-03-11T00:22:02.846Z,12.47
2019-03-11T00:24:09.874Z,11.07
2019-03-11T00:26:15.591Z,11.23
2019-03-11T00:28:20.020Z,10.63
2019-03-11T00:30:26.175Z,13.10
2019-03-11T00:32:31.204Z,12.37
2019-03-11T00:34:35.551Z,11.27
2019-03-11T00:36:40.118Z,11.77
2019-03-11T00:38:44.808Z,12.13
2019-03-11T00:40:49.511Z,11.53
2019-03-11T00:42:53.825Z,10.90
2019-03-11T00:44:58.959Z,10.87
2019-03-11T00:47:03.383Z,10.90
2019-03-11T00:49:07.916Z,10.50
2019-03-11T00:51:12.703Z,10.40
2019-03-11T00:53:17.223Z,10.90
2019-03-11T00:55:21.633Z,9.60
2019-03-11T00:57:27.029Z,10.27
2019-03-11T00:59:31.617Z,10.67
2019-03-11T01:01:37.640Z,9.73
2019-03-11T01:03:42.580Z,9.83
2019-03-11T01:05:47.737Z,9.47
2019-03-11T01:07:52.784Z,8.57
2019-03-11T01:09:58.065Z,9.07
2019-03-11T01:12:02.864Z,9.90
2019-03-11T01:14:07.794Z,8.00
2019-03-11T01:16:12.712Z,8.30
2019-03-11T01:18:17.487Z,8.60
2019-03-11T01:20:22.025Z,8.40
2019-03-11T01:22:26.749Z,8.10
2019-03-11T01:24:31.157Z,8.30
2019-03-11T01:26:35.681Z,8.60
2019-03-11T01:28:40.430Z,8.10
2019-03-11T01:30:44.825Z,8.00
2019-03-11T01:32:49.398Z,7.90
2019-03-11T01:34:54.237Z,7.70
2019-03-11T01:36:59.086Z,7.67
2019-03-11T01:39:05.960Z,7.00
2019-03-11T01:41:11.199Z,7.40
2019-03-11T01:43:15.738Z,6.60
2019-03-11T01:45:20.351Z,7.37
2019-03-11T01:47:25.230Z,7.17
2019-03-11T01:49:32.413Z,6.67
2019-03-11T01:51:36.983Z,7.03
2019-03-11T01:53:42.435Z,6.77
2019-03-11T01:55:47.113Z,7.20
2019-03-11T01:57:52.114Z,6.67
2019-03-11T01:59:56.999Z,6.63
2019-03-11T02:02:01.445Z,6.47
2019-03-11T02:04:06.117Z,6.77
2019-03-11T02:06:10.703Z,7.63
2019-03-11T02:08:15.053Z,7.57
2019-03-11T02:10:20.111Z,7.00
2019-03-11T02:12:25.046Z,7.10
2019-03-11T02:14:29.469Z,7.87
2019-03-11T02:16:34.703Z,6.87
2019-03-11T02:18:39.657Z,6.60
2019-03-11T02:20:44.284Z,6.33
2019-03-11T02:22:48.795Z,6.80
2019-03-11T02:24:53.574Z,6.87
2019-03-11T02:26:58.090Z,6.50
2019-03-11T02:29:02.840Z,6.80
2019-03-11T02:31:07.687Z,6.87
2019-03-11T02:33:12.107Z,6.40
2019-03-11T02:35:28.574Z,6.60
2019-03-11T02:37:33.277Z,5.73
2019-03-11T02:39:37.492Z,5.90
2019-03-11T02:41:42.279Z,6.23
2019-03-11T02:43:47.184Z,6.57
2019-03-11T02:45:52.025Z,5.80
2019-03-11T02:47:56.331Z,6.40
2019-03-11T02:50:01.312Z,5.77
2019-03-11T02:52:05.974Z,5.40
2019-03-11T02:54:10.348Z,5.53
2019-03-11T02:56:14.871Z,5.73
2019-03-11T02:58:19.671Z,5.80
2019-03-11T03:00:26.298Z,5.40
2019-03-11T03:02:57.065Z,6.10
2019-03-11T03:05:13.551Z,5.30
2019-03-11T03:07:20.168Z,6.07
2019-03-11T03:09:24.398Z,5.70
2019-03-11T03:11:29.139Z,5.43
2019-03-11T03:13:33.470Z,5.10
2019-03-11T03:15:38.541Z,6.23
2019-03-11T03:17:43.773Z,5.00
2019-03-11T03:19:48.480Z,4.53
2019-03-11T03:21:52.864Z,5.20
2019-03-11T03:23:57.073Z,5.60
2019-03-11T03:26:01.250Z,4.70
2019-03-11T03:28:05.722Z,4.90
2019-03-11T03:30:12.603Z,4.73
2019-03-11T03:32:17.125Z,5.07
2019-03-11T03:34:21.642Z,4.60
2019-03-11T03:36:26.250Z,4.50
2019-03-11T03:38:31.494Z,4.87
2019-03-11T03:40:36.196Z,5.07
2019-03-11T03:42:40.689Z,4.37
2019-03-11T03:45:13.611Z,4.40
2019-03-11T03:47:18.211Z,4.13
2019-03-11T03:49:22.591Z,5.10
2019-03-11T03:51:27.162Z,4.20
2019-03-11T03:53:31.403Z,4.10
2019-03-11T03:55:36.275Z,3.73
2019-03-11T03:57:40.546Z,4.10
2019-03-11T03:59:45.040Z,4.13
2019-03-11T04:01:49.572Z,4.17
2019-03-11T04:03:53.739Z,4.47
2019-03-11T04:05:57.906Z,3.73
2019-03-11T04:08:02.580Z,4.33
2019-03-11T04:10:07.348Z,4.30
2019-03-11T04:12:11.617Z,4.50
2019-03-11T04:14:16.566Z,5.37
2019-03-11T04:16:20.674Z,5.90
2019-03-11T04:18:25.144Z,6.10
2019-03-11T04:20:29.413Z,6.00
2019-03-11T04:22:33.574Z,6.10
2019-03-11T04:24:39.025Z,6.63
2019-03-11T04:26:43.687Z,6.80
2019-03-11T04:28:48.466Z,6.73
2019-03-11T04:30:52.640Z,6.50
2019-03-11T04:32:56.741Z,6.00
2019-03-11T04:35:01.262Z,6.27
2019-03-11T04:37:05.409Z,5.57
2019-03-11T04:39:09.959Z,6.27
2019-03-11T04:41:14.770Z,5.80
2019-03-11T04:43:19.744Z,5.87
2019-03-11T04:45:24.238Z,5.77
2019-03-11T04:47:28.588Z,5.60
2019-03-11T04:49:33.188Z,5.50
2019-03-11T04:51:37.621Z,5.80
2019-03-11T04:53:42.374Z,5.70
2019-03-11T04:55:48.442Z,5.77
2019-03-11T04:57:53.705Z,5.60
2019-03-11T04:59:58.140Z,5.10
2019-03-11T05:02:06.203Z,5.80
2019-03-11T05:04:10.722Z,4.80
2019-03-11T05:06:15.133Z,4.60
2019-03-11T05:08:20.117Z,5.10
2019-03-11T05:10:33.647Z,4.53
2019-03-11T05:12:41.554Z,5.57
2019-03-11T05:14:46.357Z,4.60
2019-03-11T05:16:50.899Z,4.90
2019-03-11T05:18:56.174Z,4.70
2019-03-11T05:21:01.004Z,4.67
2019-03-11T05:23:05.782Z,4.63
2019-03-11T05:25:11.555Z,4.40
2019-03-11T05:27:16.188Z,4.03
2019-03-11T05:29:20.587Z,3.83
2019-03-11T05:31:25.039Z,3.67
2019-03-11T05:33:31.240Z,4.00
2019-03-11T05:35:35.478Z,3.80
2019-03-11T05:37:39.843Z,3.60
2019-03-11T05:39:48.314Z,3.50
2019-03-11T05:41:53.518Z,3.80
2019-03-11T05:43:58.707Z,3.23
2019-03-11T05:46:05.441Z,3.80
2019-03-11T05:48:09.893Z,3.60
2019-03-11T05:50:14.457Z,3.57
2019-03-11T05:52:18.813Z,3.60
2019-03-11T05:54:23.509Z,3.30
2019-03-11T05:56:27.906Z,2.93
2019-03-11T05:58:32.531Z,2.87
2019-03-11T06:00:36.732Z,3.17
2019-03-11T06:02:40.890Z,3.10
2019-03-11T06:04:45.483Z,2.70
2019-03-11T06:06:49.864Z,2.90
2019-03-11T06:08:54.020Z,3.20
2019-03-11T06:10:58.551Z,3.10
2019-03-11T06:13:04.542Z,3.13
2019-03-11T06:15:09.339Z,3.07
2019-03-11T06:17:13.548Z,2.80
2019-03-11T06:19:18.617Z,2.90
2019-03-11T06:21:34.190Z,2.77
2019-03-11T06:23:38.695Z,2.70
2019-03-11T06:25:42.962Z,2.93
2019-03-11T06:27:49.970Z,3.30
2019-03-11T06:29:54.767Z,3.40
2019-03-11T06:31:59.306Z,2.40
2019-03-11T06:34:03.592Z,3.00
2019-03-11T06:36:08.295Z,2.80
2019-03-11T06:38:12.814Z,3.13
2019-03-11T06:40:17.167Z,4.50
2019-03-11T06:42:22.144Z,60.17
2019-03-11T06:44:26.300Z,154.90
2019-03-11T06:46:30.614Z,318.67
2019-03-11T06:48:35.710Z,735.43
2019-03-11T06:50:40.715Z,738.10
2019-03-11T06:52:44.996Z,315.30
2019-03-11T06:54:49.695Z,88.63
2019-03-11T06:56:53.984Z,44.70
2019-03-11T06:59:00.249Z,14.77
2019-03-11T07:01:05.164Z,8.83
2019-03-11T07:03:10.594Z,6.63
2019-03-11T07:05:20.166Z,4.83
2019-03-11T07:07:21.521Z,5.20
2019-03-11T07:09:25.809Z,4.60
2019-03-11T07:11:30.074Z,5.00
2019-03-11T07:13:34.892Z,4.20
2019-03-11T07:15:39.229Z,24.57
2019-03-11T07:17:47.131Z,200.30
2019-03-11T07:19:51.735Z,244.43
2019-03-11T07:21:56.175Z,274.27
2019-03-11T07:24:00.477Z,249.07
2019-03-11T07:26:07.276Z,264.17
2019-03-11T07:28:14.235Z,255.37
2019-03-11T07:30:18.501Z,251.47
2019-03-11T07:32:23.506Z,313.17
2019-03-11T07:34:28.137Z,382.70
2019-03-11T07:36:34.182Z,419.53
2019-03-11T07:38:38.583Z,445.40
2019-03-11T07:40:44.319Z,446.27
2019-03-11T07:42:51.299Z,449.43
2019-03-11T07:44:55.451Z,576.13
2019-03-11T07:47:00.346Z,658.80
2019-03-11T07:49:05.565Z,618.53
2019-03-11T07:51:10.381Z,597.73
2019-03-11T07:53:14.615Z,596.03
2019-03-11T07:55:18.975Z,595.77
2019-03-11T07:57:23.675Z,573.67
2019-03-11T07:59:28.640Z,553.20
2019-03-11T08:01:33.209Z,602.83
2019-03-11T08:03:37.563Z,923.67
2019-03-11T08:05:42.110Z,662.73
2019-03-11T08:07:46.354Z,694.77
2019-03-11T08:09:50.861Z,664.97
2019-03-11T08:11:55.465Z,649.30
2019-03-11T08:13:59.824Z,650.30
2019-03-11T08:16:04.860Z,667.63
2019-03-11T08:18:11.137Z,770.73
2019-03-11T08:20:16.310Z,858.17
2019-03-11T08:22:20.841Z,723.53
2019-03-11T08:24:26.196Z,761.23
2019-03-11T08:26:31.163Z,727.83
2019-03-11T08:28:35.502Z,701.53
2019-03-11T08:30:41.823Z,697.53
2019-03-11T08:32:46.223Z,686.20
2019-03-11T08:34:55.609Z,671.93
2019-03-11T08:37:01.234Z,673.50
2019-03-11T08:39:07.366Z,654.77
2019-03-11T08:41:11.872Z,671.37
2019-03-11T08:43:20.038Z,697.10
2019-03-11T08:45:24.875Z,683.17
2019-03-11T08:47:29.173Z,998.07
2019-03-11T08:49:33.591Z,782.07
2019-03-11T08:51:39.411Z,763.90
2019-03-11T08:53:44.717Z,743.93
2019-03-11T08:55:49.252Z,891.63
2019-03-11T08:57:54.184Z,760.77
2019-03-11T08:59:58.551Z,699.90
2019-03-11T09:02:03.115Z,677.77
2019-03-11T09:04:07.721Z,748.07
2019-03-11T09:06:12.368Z,999.90
2019-03-11T09:08:17.143Z,824.03
2019-03-11T09:10:21.360Z,726.77
2019-03-11T09:12:25.762Z,690.53
2019-03-11T09:14:30.037Z,760.70
2019-03-11T09:16:35.017Z,645.20
2019-03-11T09:18:39.552Z,999.90
2019-03-11T09:20:44.400Z,716.40
2019-03-11T09:22:49.463Z,629.20
2019-03-11T09:24:53.646Z,598.43
2019-03-11T09:26:58.991Z,592.43
2019-03-11T09:29:03.243Z,957.53
2019-03-11T09:31:07.618Z,564.90
2019-03-11T09:33:12.664Z,910.20
2019-03-11T09:35:16.974Z,737.53
2019-03-11T09:37:21.317Z,920.33
2019-03-11T09:39:25.556Z,796.20
2019-03-11T09:41:29.793Z,741.83
2019-03-11T09:43:34.036Z,679.73
2019-03-11T09:45:38.569Z,513.77
2019-03-11T09:47:42.708Z,556.63
2019-03-11T09:49:47.275Z,477.47
2019-03-11T09:51:52.039Z,376.43
2019-03-11T09:53:56.259Z,306.43
2019-03-11T09:56:00.418Z,235.23
2019-03-11T09:58:05.394Z,224.83
2019-03-11T10:00:17.755Z,163.27
2019-03-11T10:02:21.998Z,127.13
2019-03-11T10:04:26.691Z,129.53
2019-03-11T10:06:30.927Z,309.23
2019-03-11T10:08:35.133Z,458.17
2019-03-11T10:10:40.713Z,344.33
2019-03-11T10:12:45.209Z,241.27
2019-03-11T10:14:49.711Z,164.17
2019-03-11T10:16:54.372Z,152.73
2019-03-11T10:18:58.666Z,588.43
2019-03-11T10:21:02.981Z,248.27
2019-03-11T10:23:07.756Z,218.83
2019-03-11T10:25:12.035Z,126.30
2019-03-11T10:27:16.277Z,110.03
2019-03-11T10:29:20.912Z,90.63
2019-03-11T10:31:25.345Z,128.77
2019-03-11T10:33:29.539Z,150.70
2019-03-11T10:35:33.699Z,280.77
2019-03-11T10:37:37.845Z,264.20
2019-03-11T10:39:42.213Z,206.63
2019-03-11T10:41:46.806Z,155.90
2019-03-11T10:43:51.005Z,131.57
2019-03-11T10:45:55.287Z,97.47
2019-03-11T10:48:00.273Z,213.27
2019-03-11T10:50:04.956Z,92.87
2019-03-11T10:52:09.167Z,88.97
2019-03-11T10:54:13.630Z,142.07
2019-03-11T10:56:18.117Z,220.50
2019-03-11T10:58:22.502Z,81.77
2019-03-11T11:00:27.095Z,343.87
2019-03-11T11:02:31.551Z,711.47
2019-03-11T11:04:36.119Z,58.50
2019-03-11T11:06:40.857Z,29.80
2019-03-11T11:08:45.150Z,291.00
2019-03-11T11:10:49.500Z,62.20
2019-03-11T11:12:54.075Z,202.73
2019-03-11T11:14:58.218Z,253.47
2019-03-11T11:17:02.781Z,161.40
2019-03-11T11:19:07.479Z,33.00
2019-03-11T11:21:11.667Z,19.27
2019-03-11T11:23:16.124Z,272.17
2019-03-11T11:25:20.973Z,36.03
2019-03-11T11:27:25.291Z,299.87
2019-03-11T11:29:29.747Z,31.40
2019-03-11T11:31:35.046Z,537.47
2019-03-11T11:33:39.832Z,282.00
2019-03-11T11:35:44.452Z,406.23
2019-03-11T11:37:49.448Z,243.27
2019-03-11T11:39:55.265Z,200.73
2019-03-11T11:41:59.580Z,161.57
2019-03-11T11:44:04.589Z,120.67
2019-03-11T11:46:09.332Z,107.27
2019-03-11T11:48:13.866Z,81.87
2019-03-11T11:50:19.398Z,75.93
2019-03-11T11:52:23.561Z,64.40
2019-03-11T11:54:28.261Z,52.33
2019-03-11T11:56:32.600Z,51.60
2019-03-11T11:58:37.003Z,344.70
2019-03-11T12:00:44.027Z,202.43
2019-03-11T12:02:48.913Z,255.20
2019-03-11T12:04:53.339Z,210.13
2019-03-11T12:06:57.567Z,206.90
2019-03-11T12:09:02.166Z,159.07
2019-03-11T12:11:06.315Z,133.40
2019-03-11T12:13:10.504Z,116.97
2019-03-11T12:15:15.207Z,103.80
2019-03-11T12:17:19.426Z,85.40
2019-03-11T12:19:23.829Z,67.57
2019-03-11T12:21:28.643Z,54.60
2019-03-11T12:23:33.142Z,46.53
2019-03-11T12:25:37.710Z,47.67
2019-03-11T12:27:52.775Z,37.67
2019-03-11T12:29:48.654Z,40.73
2019-03-11T12:31:52.882Z,32.27
2019-03-11T12:33:57.347Z,29.97
2019-03-11T12:36:01.561Z,22.80
2019-03-11T12:38:05.835Z,27.20
2019-03-11T12:40:10.905Z,413.93
2019-03-11T12:42:15.155Z,70.70
2019-03-11T12:44:19.302Z,46.87
2019-03-11T12:46:24.358Z,52.70
2019-03-11T12:48:28.933Z,39.47
2019-03-11T12:50:33.826Z,75.40
2019-03-11T12:52:38.662Z,152.33
2019-03-11T12:54:43.508Z,153.67
2019-03-11T12:56:50.019Z,129.83
2019-03-11T12:58:53.982Z,965.33
2019-03-11T13:00:58.168Z,736.43
2019-03-11T13:03:03.520Z,415.13
2019-03-11T13:05:08.347Z,328.27
2019-03-11T13:07:12.602Z,191.57
2019-03-11T13:09:17.109Z,989.40
2019-03-11T13:11:22.005Z,437.13
2019-03-11T13:13:26.254Z,421.60
2019-03-11T13:15:30.712Z,355.20
2019-03-11T13:17:35.616Z,907.77
2019-03-11T13:19:40.657Z,997.13
2019-03-11T13:21:46.209Z,576.63
2019-03-11T13:23:50.655Z,383.87
2019-03-11T13:25:54.807Z,262.23
2019-03-11T13:27:59.371Z,668.87
2019-03-11T13:30:06.143Z,305.70
2019-03-11T13:32:10.316Z,999.90
2019-03-11T13:34:14.738Z,409.63
2019-03-11T13:36:20.088Z,599.37
2019-03-11T13:38:24.696Z,427.37
2019-03-11T13:40:28.987Z,670.03
2019-03-11T13:42:33.557Z,627.93
2019-03-11T13:44:37.763Z,587.17
2019-03-11T13:46:41.952Z,536.50
2019-03-11T13:48:46.587Z,913.23
2019-03-11T13:50:50.785Z,455.33
2019-03-11T13:52:55.043Z,677.00
2019-03-11T13:55:09.775Z,529.33
2019-03-11T13:57:06.264Z,458.43
2019-03-11T13:59:10.383Z,570.53
2019-03-11T14:01:15.306Z,518.90
2019-03-11T14:03:19.525Z,391.60
2019-03-11T14:05:23.745Z,170.77
2019-03-11T14:07:28.376Z,582.30
2019-03-11T14:09:32.559Z,337.53
2019-03-11T14:11:37.028Z,169.90
2019-03-11T14:13:41.697Z,92.10
2019-03-11T14:15:46.129Z,139.63
2019-03-11T14:17:50.654Z,180.03
2019-03-11T14:19:55.351Z,104.30
2019-03-11T14:21:59.555Z,211.83
2019-03-11T14:24:06.766Z,155.53
2019-03-11T14:26:11.104Z,179.17
2019-03-11T14:28:15.395Z,185.13
2019-03-11T14:30:19.973Z,859.17
2019-03-11T14:32:27.692Z,332.67
2019-03-11T14:34:32.380Z,341.60
2019-03-11T14:36:52.323Z,302.10
2019-03-11T14:38:58.061Z,544.60
2019-03-11T14:41:03.775Z,999.90
2019-03-11T14:43:08.504Z,447.90
2019-03-11T14:45:14.124Z,369.43
2019-03-11T14:47:19.299Z,302.53
2019-03-11T14:49:23.536Z,232.93
2019-03-11T14:51:28.383Z,241.63
2019-03-11T14:53:32.595Z,434.00
2019-03-11T14:55:37.512Z,325.63
2019-03-11T14:57:42.411Z,959.37
2019-03-11T14:59:46.807Z,454.40
2019-03-11T15:01:52.590Z,889.63
2019-03-11T15:03:57.496Z,388.70
2019-03-11T15:06:01.678Z,660.53
2019-03-11T15:08:05.984Z,409.90
2019-03-11T15:10:13.281Z,390.70
2019-03-11T15:12:17.568Z,292.07
2019-03-11T15:14:21.791Z,228.67
2019-03-11T15:16:26.722Z,195.93
2019-03-11T15:18:30.944Z,520.20
2019-03-11T15:20:35.295Z,166.17
2019-03-11T15:22:39.726Z,970.83
2019-03-11T15:24:44.175Z,174.07
2019-03-11T15:26:48.573Z,198.20
2019-03-11T15:28:53.422Z,154.70
2019-03-11T15:30:57.895Z,290.60
2019-03-11T15:33:02.536Z,307.83
2019-03-11T15:35:07.792Z,432.57
2019-03-11T15:37:12.879Z,578.07
2019-03-11T15:39:17.847Z,616.10
2019-03-11T15:41:22.444Z,506.43
2019-03-11T15:43:26.922Z,419.13
2019-03-11T15:45:38.645Z,389.07
2019-03-11T15:47:37.427Z,388.17
2019-03-11T15:49:41.972Z,377.77
2019-03-11T15:51:46.631Z,372.27
2019-03-11T15:53:51.515Z,573.17
2019-03-11T15:55:57.151Z,378.13
2019-03-11T15:58:03.461Z,387.20
2019-03-11T16:00:11.594Z,999.90
2019-03-11T16:02:17.891Z,406.63
2019-03-11T16:04:23.783Z,725.03
2019-03-11T16:06:32.875Z,405.93
2019-03-11T16:08:41.958Z,402.53
2019-03-11T16:10:46.361Z,318.77
2019-03-11T16:12:51.281Z,291.63
2019-03-11T16:14:56.133Z,276.87
2019-03-11T16:17:00.899Z,252.00
2019-03-11T16:19:06.183Z,246.33
2019-03-11T16:21:11.417Z,236.83
2019-03-11T16:23:18.526Z,224.40
2019-03-11T16:25:24.005Z,216.83
2019-03-11T16:27:28.680Z,203.27
2019-03-11T16:29:33.157Z,196.60
2019-03-11T16:31:38.114Z,191.23
2019-03-11T16:33:48.717Z,190.70
2019-03-11T16:35:54.323Z,172.93
2019-03-11T16:37:59.264Z,164.83
2019-03-11T16:40:06.919Z,163.60
2019-03-11T16:42:11.593Z,158.03
2019-03-11T16:44:16.574Z,153.63
2019-03-11T16:46:21.181Z,146.30
2019-03-11T16:48:28.517Z,143.87
2019-03-11T16:50:34.250Z,137.37
2019-03-11T16:52:42.043Z,137.67
2019-03-11T16:54:46.495Z,124.30
2019-03-11T16:56:52.263Z,121.40
2019-03-11T16:59:00.471Z,119.93
2019-03-11T17:01:09.574Z,116.80
2019-03-11T17:03:16.659Z,114.40
2019-03-11T17:05:24.789Z,106.40
2019-03-11T17:07:32.555Z,105.67
2019-03-11T17:09:42.338Z,103.47
2019-03-11T17:11:48.110Z,96.93
2019-03-11T17:13:54.241Z,93.63
2019-03-11T17:16:03.468Z,95.13
2019-03-11T17:18:13.542Z,90.63
2019-03-11T17:20:21.535Z,91.43
2019-03-11T17:22:31.496Z,89.47
2019-03-11T17:24:44.238Z,89.43
2019-03-11T17:26:49.348Z,88.40
2019-03-11T17:28:59.288Z,84.23
2019-03-11T17:31:09.242Z,81.87
2019-03-11T17:33:19.692Z,82.60
2019-03-11T17:35:26.213Z,77.70
2019-03-11T17:37:31.803Z,74.73
2019-03-11T17:39:38.011Z,76.70
2019-03-11T17:41:44.149Z,76.50
2019-03-11T17:43:50.604Z,74.00
2019-03-11T17:45:55.686Z,74.10
2019-03-11T17:48:02.129Z,71.13
2019-03-11T17:50:08.327Z,68.37
2019-03-11T17:52:13.279Z,64.43
2019-03-11T17:54:18.557Z,65.37
2019-03-11T17:56:24.115Z,64.50
2019-03-11T17:58:29.447Z,66.10
2019-03-11T18:00:34.252Z,63.53
2019-03-11T18:02:38.985Z,59.40
2019-03-11T18:04:49.386Z,57.97
2019-03-11T18:09:22.573Z,58.10
2019-03-11T18:11:27.784Z,57.57
2019-03-11T18:13:32.279Z,57.27
2019-03-11T18:15:37.038Z,56.97
2019-03-11T18:17:42.031Z,55.00
2019-03-11T18:19:46.330Z,53.40
2019-03-11T18:21:51.050Z,52.60
2019-03-11T18:23:57.895Z,51.97
2019-03-11T18:26:05.892Z,50.57
2019-03-11T18:28:11.025Z,49.70
2019-03-11T18:30:18.487Z,50.20
2019-03-11T18:32:23.446Z,45.73
2019-03-11T18:34:32.501Z,145.27
2019-03-11T18:36:37.401Z,354.17
2019-03-11T18:38:42.440Z,439.33
2019-03-11T18:40:46.924Z,569.20
2019-03-11T18:42:51.731Z,486.00
2019-03-11T18:44:56.093Z,421.67
2019-03-11T18:47:00.393Z,419.23
2019-03-11T18:49:05.863Z,392.07
2019-03-11T18:51:11.330Z,382.67
2019-03-11T18:53:15.834Z,353.57
2019-03-11T18:55:21.728Z,381.50
2019-03-11T18:57:26.076Z,686.70
2019-03-11T18:59:31.172Z,677.97
2019-03-11T19:01:36.467Z,640.27
2019-03-11T19:03:43.079Z,634.23
2019-03-11T19:05:49.859Z,585.13
2019-03-11T19:07:55.608Z,555.67
2019-03-11T19:10:07.325Z,535.37
2019-03-11T19:12:11.582Z,517.03
2019-03-11T19:14:15.798Z,510.67
2019-03-11T19:16:22.387Z,672.97
2019-03-11T19:18:27.878Z,697.60
2019-03-11T19:20:33.973Z,650.93
2019-03-11T19:22:38.763Z,649.23
2019-03-11T19:24:44.252Z,650.30
2019-03-11T19:26:52.753Z,595.80
2019-03-11T19:28:57.815Z,581.10
2019-03-11T19:31:02.575Z,577.83
2019-03-11T19:33:07.352Z,561.57
2019-03-11T19:35:11.953Z,581.83
2019-03-11T19:37:17.205Z,561.77
2019-03-11T19:39:21.930Z,914.07
2019-03-11T19:41:27.131Z,877.07
2019-03-11T19:43:32.817Z,775.10
2019-03-11T19:45:45.144Z,684.63
2019-03-11T19:47:50.067Z,582.10
2019-03-11T19:49:57.275Z,510.50
2019-03-11T19:52:10.163Z,598.40
2019-03-11T19:54:16.777Z,542.27
2019-03-11T19:56:27.555Z,756.70
2019-03-11T19:58:34.133Z,701.03
2019-03-11T20:00:49.389Z,624.87
2019-03-11T20:02:54.574Z,542.37
2019-03-11T20:05:00.010Z,763.57
2019-03-11T20:07:07.177Z,464.87
2019-03-11T20:09:14.558Z,612.90
2019-03-11T20:11:20.035Z,551.50
2019-03-11T20:13:24.467Z,624.93
2019-03-11T20:15:29.589Z,409.77
2019-03-11T20:17:34.516Z,481.60
2019-03-11T20:19:39.677Z,947.80
2019-03-11T20:21:44.166Z,476.80
2019-03-11T20:23:49.079Z,352.10
2019-03-11T20:25:53.997Z,347.47
2019-03-11T20:27:58.283Z,445.27
2019-03-11T20:30:03.895Z,692.57
2019-03-11T20:32:08.215Z,361.00
2019-03-11T20:34:13.055Z,502.20
2019-03-11T20:36:21.311Z,440.17
2019-03-11T20:38:23.988Z,566.77
2019-03-11T20:40:28.855Z,545.00
2019-03-11T20:42:34.394Z,586.10
2019-03-11T20:44:39.194Z,549.63
2019-03-11T20:46:43.985Z,823.00
2019-03-11T20:48:48.621Z,796.73
2019-03-11T20:50:53.025Z,568.87
2019-03-11T20:52:57.535Z,862.93
2019-03-11T20:55:01.890Z,645.23
2019-03-11T20:57:06.663Z,729.70
2019-03-11T20:59:11.181Z,501.90
2019-03-11T21:01:16.580Z,412.30
2019-03-11T21:03:21.118Z,373.40
2019-03-11T21:05:27.348Z,349.97
2019-03-11T21:07:32.253Z,333.93
2019-03-11T21:09:36.572Z,310.70
2019-03-11T21:11:41.140Z,311.90
2019-03-11T21:13:45.973Z,299.90
2019-03-11T21:15:50.228Z,450.27
2019-03-11T21:17:54.513Z,618.87
2019-03-11T21:19:58.954Z,652.20
2019-03-11T21:22:03.296Z,626.20
2019-03-11T21:24:08.384Z,522.20
2019-03-11T21:26:13.438Z,485.57
2019-03-11T21:28:18.963Z,475.80
2019-03-11T21:30:23.210Z,447.83
2019-03-11T21:32:28.064Z,494.17
2019-03-11T21:34:33.319Z,604.70
2019-03-11T21:36:37.786Z,657.53
2019-03-11T21:38:42.356Z,649.63
2019-03-11T21:40:46.769Z,622.70
2019-03-11T21:42:51.971Z,597.00
2019-03-11T21:44:56.694Z,883.50
2019-03-11T21:47:01.331Z,694.07
2019-03-11T21:49:08.468Z,622.43
2019-03-11T21:51:13.663Z,577.53
2019-03-11T21:53:18.133Z,560.33
2019-03-11T21:55:23.231Z,539.10
2019-03-11T21:57:27.854Z,524.90
2019-03-11T21:59:32.212Z,523.13
2019-03-11T22:01:36.741Z,525.37
2019-03-11T22:03:42.036Z,573.27
2019-03-11T22:05:46.670Z,636.00
2019-03-11T22:07:50.930Z,696.43
2019-03-11T22:09:55.784Z,904.07
2019-03-11T22:12:00.777Z,772.27
2019-03-11T22:14:08.433Z,703.33
2019-03-11T22:16:13.541Z,650.43
2019-03-11T22:18:17.893Z,616.40
2019-03-11T22:20:22.159Z,621.20
2019-03-11T22:22:27.150Z,611.17
2019-03-11T22:24:34.360Z,593.13
2019-03-11T22:26:39.377Z,584.47
2019-03-11T22:28:44.247Z,565.00
2019-03-11T22:30:49.041Z,567.50
2019-03-11T22:32:53.322Z,554.07
2019-03-11T22:35:11.584Z,548.33
2019-03-11T22:37:06.631Z,534.57
2019-03-11T22:39:10.948Z,528.00
2019-03-11T22:41:15.175Z,662.97
2019-03-11T22:43:20.387Z,810.03
2019-03-11T22:45:24.604Z,776.97
2019-03-11T22:47:29.098Z,712.73
2019-03-11T22:49:33.697Z,621.53
2019-03-11T22:51:39.004Z,674.60
2019-03-11T22:53:45.342Z,912.67
2019-03-11T22:55:49.877Z,656.27
2019-03-11T22:57:55.482Z,450.87
2019-03-11T23:00:03.486Z,364.03
2019-03-11T23:02:11.908Z,352.07
2019-03-11T23:04:17.329Z,346.17
2019-03-11T23:06:23.113Z,350.77
2019-03-11T23:08:30.132Z,337.97
2019-03-11T23:10:34.837Z,346.13
2019-03-11T23:12:39.318Z,343.00
2019-03-11T23:14:44.877Z,339.73
2019-03-11T23:16:51.692Z,331.47
2019-03-11T23:18:56.543Z,333.67
2019-03-11T23:21:01.541Z,328.87
2019-03-11T23:23:08.748Z,324.80
2019-03-11T23:25:13.372Z,323.73
2019-03-11T23:27:18.249Z,319.17
2019-03-11T23:29:22.482Z,321.90
2019-03-11T23:31:26.935Z,315.70
2019-03-11T23:33:31.785Z,302.20
2019-03-11T23:35:36.005Z,308.57
2019-03-11T23:37:41.238Z,297.20
2019-03-11T23:39:45.627Z,301.70
2019-03-11T23:41:49.822Z,297.47
2019-03-11T23:43:54.554Z,289.80
2019-03-11T23:45:58.763Z,286.30
2019-03-11T23:48:03.480Z,283.40
2019-03-11T23:50:08.844Z,277.90
2019-03-11T23:52:13.184Z,270.87
2019-03-11T23:54:17.694Z,281.17
2019-03-11T23:56:22.249Z,270.50
2019-03-11T23:58:27.710Z,272.10
